Time;durP1;ratioP1;P1;durP2;ratioP2;P2;SDS_P1;SDS_P2;PMS_P1;PMS_P2;Temp;Humidity;BMP_temperature;BMP_pressure;BME280_temperature;BME280_humidity;BME280_pressure;Samples;Min_cycle;Max_cycle;Signal;HPM_P1;HPM_P2
2022/06/16 00:00:39;;;;;;;8.48;4.45;;;18.20;99.90;;;;;;5074482;28;20331;-68
2022/06/16 00:03:07;;;;;;;6.22;3.60;;;18.10;99.90;;;;;;5074651;28;20764;-67
2022/06/16 00:05:35;;;;;;;7.97;4.28;;;18.10;99.90;;;;;;5074499;28;20183;-67
2022/06/16 00:08:12;;;;;;;7.10;3.80;;;18.00;99.90;;;;;;5074605;28;20572;-67
2022/06/16 00:13:24;;;;;;;6.50;4.00;;;17.90;99.90;;;;;;5074972;28;20216;-67
2022/06/16 00:15:50;;;;;;;6.70;3.67;;;17.90;99.90;;;;;;5072996;28;20243;-67
2022/06/16 00:18:16;;;;;;;6.20;3.63;;;17.80;99.90;;;;;;5074187;28;20178;-67
2022/06/16 00:20:42;;;;;;;8.32;3.90;;;17.80;99.90;;;;;;5074252;28;20181;-67
2022/06/16 00:23:08;;;;;;;7.40;4.03;;;17.70;99.90;;;;;;5073029;28;20221;-67
2022/06/16 00:25:34;;;;;;;9.13;4.50;;;17.60;99.90;;;;;;5074074;28;20174;-67
2022/06/16 00:28:00;;;;;;;4.95;3.50;;;17.60;99.90;;;;;;5074101;28;20666;-67
2022/06/16 00:30:25;;;;;;;7.93;3.63;;;17.50;99.90;;;;;;5072824;28;20174;-67
2022/06/16 00:32:51;;;;;;;6.32;3.60;;;17.50;99.90;;;;;;5073969;28;20190;-67
2022/06/16 00:35:17;;;;;;;4.90;3.50;;;17.50;99.90;;;;;;5073710;28;20174;-67
2022/06/16 00:37:43;;;;;;;5.22;3.42;;;17.40;99.90;;;;;;5073924;28;20230;-67
2022/06/16 00:40:10;;;;;;;3.78;3.38;;;17.30;99.90;;;;;;5073895;28;20185;-67
2022/06/16 00:42:36;;;;;;;6.22;3.60;;;17.30;99.90;;;;;;5073913;28;20753;-67
2022/06/16 00:45:23;;;;;;;4.78;3.72;;;17.20;99.90;;;;;;5073712;28;20198;-67
2022/06/16 00:47:48;;;;;;;7.63;3.85;;;17.20;99.90;;;;;;5073505;28;20209;-67
2022/06/16 00:50:14;;;;;;;5.90;3.80;;;17.20;99.90;;;;;;5073612;28;20170;-68
2022/06/16 00:52:41;;;;;;;7.68;4.18;;;17.20;99.90;;;;;;5072380;28;20173;-67
2022/06/16 00:55:12;;;;;;;7.13;3.72;;;17.10;99.90;;;;;;5073090;28;20638;-67
2022/06/16 00:57:46;;;;;;;10.40;4.05;;;17.00;99.90;;;;;;5073878;28;20189;-67
2022/06/16 01:02:45;;;;;;;5.45;4.05;;;16.90;99.90;;;;;;5074042;28;20213;-66
2022/06/16 01:05:11;;;;;;;10.25;4.22;;;16.90;99.90;;;;;;5073442;28;20582;-67
2022/06/16 01:07:41;;;;;;;7.53;4.00;;;16.90;99.90;;;;;;5073592;28;20206;-67
2022/06/16 01:10:09;;;;;;;7.32;3.70;;;17.00;99.90;;;;;;5073276;28;20165;-67
2022/06/16 01:16:15;;;;;;;9.52;4.60;;;16.90;99.90;;;;;;5073914;28;20223;-67
2022/06/16 01:19:06;;;;;;;8.07;4.03;;;16.80;99.90;;;;;;5074300;28;20244;-67
2022/06/16 01:21:55;;;;;;;7.57;3.80;;;16.80;99.90;;;;;;5053569;28;20192;-67
2022/06/16 01:24:30;;;;;;;5.90;3.85;;;16.80;99.90;;;;;;5073299;28;20209;-67
2022/06/16 01:27:13;;;;;;;6.80;4.35;;;16.70;99.90;;;;;;5071788;28;20185;-67
2022/06/16 01:30:06;;;;;;;5.95;3.90;;;16.70;99.90;;;;;;5073179;28;20285;-67
2022/06/16 01:32:51;;;;;;;7.85;4.07;;;16.70;99.90;;;;;;5073301;28;20146;-67
2022/06/16 01:35:22;;;;;;;6.13;3.83;;;16.70;99.90;;;;;;5073087;28;20560;-67
2022/06/16 01:38:03;;;;;;;7.30;3.92;;;16.60;99.90;;;;;;5073063;28;20231;-67
2022/06/16 01:40:59;;;;;;;6.00;3.50;;;16.60;99.90;;;;;;5071955;28;20181;-67
2022/06/16 01:43:43;;;;;;;7.43;3.92;;;16.60;99.90;;;;;;5048724;28;20206;-67
2022/06/16 01:46:17;;;;;;;6.38;3.92;;;16.50;99.90;;;;;;5073523;28;20211;-67
2022/06/16 01:48:47;;;;;;;8.27;4.03;;;16.40;99.90;;;;;;5072927;28;20183;-67
2022/06/16 01:51:20;;;;;;;5.28;3.97;;;16.40;99.90;;;;;;5073112;28;20158;-67
2022/06/16 01:53:49;;;;;;;6.25;4.15;;;16.40;99.90;;;;;;5071606;28;20295;-67
2022/06/16 01:56:26;;;;;;;5.45;4.18;;;16.40;99.90;;;;;;5073651;28;20592;-67
2022/06/16 01:59:08;;;;;;;4.63;3.67;;;16.30;99.90;;;;;;5072822;28;20527;-67
2022/06/16 02:01:40;;;;;;;7.20;4.40;;;16.30;99.90;;;;;;5073136;28;20163;-67
2022/06/16 02:04:26;;;;;;;6.65;4.35;;;16.30;99.90;;;;;;5072921;28;20629;-67
2022/06/16 02:06:56;;;;;;;8.38;3.75;;;16.30;99.90;;;;;;5072107;28;20760;-67
2022/06/16 02:09:28;;;;;;;7.68;4.15;;;16.30;99.90;;;;;;5076468;28;20200;-67
2022/06/16 02:11:59;;;;;;;5.85;4.43;;;16.30;99.90;;;;;;5076202;28;20170;-67
2022/06/16 02:14:40;;;;;;;8.57;4.50;;;16.20;99.90;;;;;;5076060;28;20681;-67
2022/06/16 02:17:08;;;;;;;7.15;3.85;;;16.20;99.90;;;;;;5076264;28;20161;-67
2022/06/16 02:19:35;;;;;;;6.55;4.13;;;16.20;99.90;;;;;;5076013;28;20181;-67
2022/06/16 02:22:01;;;;;;;4.22;3.47;;;16.20;99.90;;;;;;5076291;28;20174;-67
2022/06/16 02:24:28;;;;;;;6.50;4.10;;;16.10;99.90;;;;;;5074762;28;20569;-67
2022/06/16 02:26:56;;;;;;;9.55;4.13;;;16.10;99.90;;;;;;5076159;28;20182;-67
2022/06/16 02:29:39;;;;;;;6.25;4.00;;;16.10;99.90;;;;;;5075951;28;20201;-67
2022/06/16 02:32:37;;;;;;;5.68;3.97;;;16.20;99.90;;;;;;5074703;28;20177;-67
2022/06/16 02:35:05;;;;;;;5.53;4.00;;;16.10;99.90;;;;;;5074364;28;20258;-66
2022/06/16 02:37:43;;;;;;;7.38;4.75;;;16.10;99.90;;;;;;5075695;28;20181;-66
2022/06/16 02:40:38;;;;;;;5.10;3.83;;;16.00;99.90;;;;;;5075989;28;20256;-66
2022/06/16 02:43:40;;;;;;;8.32;4.07;;;16.00;99.90;;;;;;5075919;28;20193;-66
2022/06/16 02:46:18;;;;;;;7.75;4.15;;;15.90;99.90;;;;;;5075659;28;20254;-66
2022/06/16 02:49:14;;;;;;;5.85;3.88;;;15.90;99.90;;;;;;5075883;28;20181;-66
2022/06/16 02:51:49;;;;;;;6.05;4.47;;;15.80;99.90;;;;;;5074096;28;20181;-66
2022/06/16 02:54:34;;;;;;;5.63;4.10;;;15.80;99.90;;;;;;5074228;28;20629;-66
2022/06/16 02:57:17;;;;;;;7.03;4.00;;;15.80;99.90;;;;;;5075470;28;20205;-66
2022/06/16 02:59:57;;;;;;;8.02;3.85;;;15.80;99.90;;;;;;5075370;28;20248;-66
2022/06/16 03:02:25;;;;;;;5.60;4.28;;;15.80;99.90;;;;;;5075787;28;20169;-65
2022/06/16 03:04:56;;;;;;;7.60;4.25;;;15.80;99.90;;;;;;5074910;28;20607;-65
2022/06/16 03:07:23;;;;;;;8.23;4.45;;;15.80;99.90;;;;;;5073931;28;20176;-66
2022/06/16 03:09:49;;;;;;;6.78;3.88;;;15.70;99.90;;;;;;5075366;28;20621;-66
2022/06/16 03:12:15;;;;;;;7.20;3.72;;;15.60;99.90;;;;;;5073861;28;20256;-66
2022/06/16 03:14:43;;;;;;;8.05;4.22;;;15.60;99.90;;;;;;5073552;28;20553;-66
2022/06/16 03:17:10;;;;;;;6.00;3.95;;;15.60;99.90;;;;;;5075579;28;20177;-66
2022/06/16 03:19:36;;;;;;;4.70;3.97;;;15.50;99.90;;;;;;5074224;28;20585;-66
2022/06/16 03:22:03;;;;;;;8.13;4.15;;;15.40;99.90;;;;;;5074809;28;20185;-66
2022/06/16 03:24:29;;;;;;;7.22;4.13;;;15.40;99.90;;;;;;5074869;28;20217;-66
2022/06/16 03:26:55;;;;;;;7.65;3.97;;;15.40;99.90;;;;;;5074923;28;20205;-66
2022/06/16 03:29:21;;;;;;;7.78;4.20;;;15.40;99.90;;;;;;5073785;28;20215;-63
2022/06/16 03:31:46;;;;;;;5.32;3.65;;;15.40;99.90;;;;;;5074666;28;20681;-64
2022/06/16 03:34:12;;;;;;;7.65;3.85;;;15.40;99.90;;;;;;5074620;28;20560;-65
2022/06/16 03:36:38;;;;;;;7.30;3.97;;;15.40;99.90;;;;;;5074471;28;20273;-65
2022/06/16 03:39:05;;;;;;;6.05;3.88;;;15.40;99.90;;;;;;5074811;28;20712;-65
2022/06/16 03:41:31;;;;;;;6.22;4.38;;;15.40;99.90;;;;;;5074504;28;20201;-65
2022/06/16 03:43:57;;;;;;;6.25;4.20;;;15.40;99.90;;;;;;5073231;28;20208;-65
2022/06/16 03:46:23;;;;;;;7.35;4.10;;;15.40;99.90;;;;;;5073261;28;20181;-65
2022/06/16 03:48:49;;;;;;;6.90;3.92;;;15.40;99.90;;;;;;5074295;28;20540;-65
2022/06/16 03:51:15;;;;;;;4.80;3.95;;;15.40;99.90;;;;;;5074133;28;20537;-67
2022/06/16 03:53:42;;;;;;;5.75;4.20;;;15.40;99.90;;;;;;5074266;28;20185;-65
2022/06/16 03:56:08;;;;;;;5.90;4.07;;;15.30;99.90;;;;;;5074338;28;20182;-65
2022/06/16 03:58:34;;;;;;;8.98;4.28;;;15.30;99.90;;;;;;5074308;28;20178;-63
2022/06/16 04:01:00;;;;;;;7.80;3.80;;;15.30;99.90;;;;;;5074257;28;20178;-63
2022/06/16 04:06:15;;;;;;;7.88;4.10;;;15.30;99.90;;;;;;5074561;28;20178;-63
2022/06/16 04:08:41;;;;;;;8.13;4.68;;;15.30;99.90;;;;;;5074159;28;20209;-63
2022/06/16 04:13:53;;;;;;;6.35;4.35;;;15.30;99.90;;;;;;5075076;28;20201;-64
2022/06/16 04:16:18;;;;;;;6.65;3.67;;;15.30;99.90;;;;;;5073454;28;20556;-63
2022/06/16 04:18:44;;;;;;;7.03;4.40;;;15.20;99.90;;;;;;5074464;28;20181;-63
2022/06/16 04:21:11;;;;;;;7.40;4.43;;;15.20;99.90;;;;;;5073999;28;20178;-63
2022/06/16 04:23:37;;;;;;;5.97;4.15;;;15.20;99.90;;;;;;5074018;28;20200;-63
2022/06/16 04:26:04;;;;;;;6.65;4.38;;;15.30;99.90;;;;;;5073795;28;20531;-63
2022/06/16 04:28:30;;;;;;;7.93;4.00;;;15.30;99.90;;;;;;5073868;28;20212;-63
2022/06/16 04:30:56;;;;;;;5.40;4.30;;;15.20;99.90;;;;;;5072410;28;20591;-63
2022/06/16 04:33:22;;;;;;;7.60;4.38;;;15.20;99.90;;;;;;5073644;28;20189;-63
2022/06/16 04:35:48;;;;;;;8.95;4.50;;;15.10;99.90;;;;;;5073519;28;20574;-63
2022/06/16 04:38:14;;;;;;;9.20;4.18;;;15.10;99.90;;;;;;5073750;28;20208;-63
2022/06/16 04:40:40;;;;;;;5.32;4.22;;;15.10;99.90;;;;;;5073750;28;20177;-63
2022/06/16 04:43:06;;;;;;;7.25;4.47;;;15.20;99.90;;;;;;5073585;28;20200;-63
2022/06/16 04:45:32;;;;;;;7.95;4.32;;;15.20;99.90;;;;;;5074123;28;20186;-63
2022/06/16 04:47:58;;;;;;;7.65;4.50;;;15.20;99.90;;;;;;5073916;28;20208;-63
2022/06/16 04:50:24;;;;;;;7.90;4.45;;;15.20;99.90;;;;;;5073692;28;20593;-63
2022/06/16 04:52:50;;;;;;;6.05;4.18;;;15.30;99.90;;;;;;5073455;28;20242;-63
2022/06/16 04:55:17;;;;;;;7.78;4.32;;;15.30;99.90;;;;;;5073437;28;20173;-63
2022/06/16 04:57:43;;;;;;;7.13;4.28;;;15.40;99.90;;;;;;5072216;28;20190;-63
2022/06/16 05:00:14;;;;;;;9.88;4.97;;;15.40;99.90;;;;;;5074001;28;20170;-63
2022/06/16 05:02:40;;;;;;;6.75;4.63;;;15.40;99.90;;;;;;5073365;28;20241;-63
2022/06/16 05:05:07;;;;;;;7.20;4.38;;;15.40;99.90;;;;;;5073332;28;20640;-63
2022/06/16 05:07:33;;;;;;;8.25;4.45;;;15.50;99.90;;;;;;5073222;28;20170;-63
2022/06/16 05:09:58;;;;;;;6.72;4.88;;;15.50;99.90;;;;;;5073248;28;20228;-63
2022/06/16 05:12:24;;;;;;;5.75;4.40;;;15.50;99.90;;;;;;5073436;28;20178;-64
2022/06/16 05:14:50;;;;;;;6.53;4.50;;;15.50;99.90;;;;;;5073091;28;20617;-63
2022/06/16 05:17:16;;;;;;;8.25;4.40;;;15.50;99.90;;;;;;5073720;28;20193;-63
2022/06/16 05:19:42;;;;;;;7.40;4.53;;;15.40;99.90;;;;;;5073125;28;20170;-63
2022/06/16 05:22:08;;;;;;;5.75;4.15;;;15.50;99.90;;;;;;5072964;28;20204;-63
2022/06/16 05:24:34;;;;;;;6.38;4.43;;;15.50;99.90;;;;;;5073630;28;20193;-64
2022/06/16 05:27:04;;;;;;;5.28;4.22;;;15.60;99.90;;;;;;5073387;28;20240;-63
2022/06/16 05:29:31;;;;;;;6.60;4.50;;;15.70;99.90;;;;;;5071766;28;20201;-63
2022/06/16 05:31:57;;;;;;;7.60;4.40;;;15.70;99.90;;;;;;5071895;28;20174;-64
2022/06/16 05:34:23;;;;;;;8.27;4.85;;;15.80;99.90;;;;;;5072967;28;20198;-64
2022/06/16 05:36:49;;;;;;;7.38;5.00;;;15.80;99.90;;;;;;5072698;28;20220;-67
2022/06/16 05:39:15;;;;;;;6.93;4.68;;;15.80;99.90;;;;;;5072914;28;20173;-64
2022/06/16 05:41:41;;;;;;;6.45;4.70;;;15.90;99.90;;;;;;5073406;28;20636;-64
2022/06/16 05:44:08;;;;;;;9.23;5.13;;;15.90;99.90;;;;;;5076709;28;20709;-64
2022/06/16 05:46:35;;;;;;;8.10;4.80;;;15.90;99.90;;;;;;5076885;28;20181;-64
2022/06/16 05:49:02;;;;;;;8.57;4.90;;;15.90;99.90;;;;;;5075214;28;20250;-64
2022/06/16 05:51:27;;;;;;;8.60;5.32;;;15.90;99.90;;;;;;5076342;28;20241;-64
2022/06/16 05:53:53;;;;;;;7.97;4.80;;;16.00;99.90;;;;;;5076442;28;20677;-64
2022/06/16 05:56:19;;;;;;;8.32;5.30;;;16.00;99.90;;;;;;5076896;28;20268;-64
2022/06/16 05:58:45;;;;;;;9.93;5.18;;;16.00;99.90;;;;;;5076413;28;20174;-64
2022/06/16 06:01:13;;;;;;;7.82;4.75;;;16.00;99.90;;;;;;5076329;28;20182;-64
2022/06/16 06:03:40;;;;;;;7.32;4.68;;;16.00;99.90;;;;;;5076162;28;20189;-64
2022/06/16 06:06:07;;;;;;;9.43;4.88;;;16.10;99.90;;;;;;5076081;28;20706;-64
2022/06/16 06:16:54;;;;;;;7.47;4.45;;;16.30;99.90;;;;;;5076175;28;20165;-64
2022/06/16 06:19:26;;;;;;;8.45;4.35;;;16.30;99.90;;;;;;5075966;28;20248;-64
2022/06/16 06:21:58;;;;;;;6.00;4.35;;;16.30;99.90;;;;;;5075896;28;20279;-64
2022/06/16 06:24:29;;;;;;;7.10;3.97;;;16.30;99.90;;;;;;5076057;28;20201;-66
2022/06/16 06:26:56;;;;;;;8.45;4.05;;;16.30;99.90;;;;;;5076056;28;20182;-64
2022/06/16 06:29:22;;;;;;;4.40;3.80;;;16.40;99.90;;;;;;5074570;28;20206;-64
2022/06/16 06:31:48;;;;;;;7.57;4.22;;;16.40;99.90;;;;;;5075356;28;20169;-64
2022/06/16 06:34:14;;;;;;;5.78;3.78;;;16.50;99.90;;;;;;5075687;28;20540;-64
2022/06/16 06:36:40;;;;;;;6.50;3.95;;;16.60;99.90;;;;;;5075564;28;20631;-66
2022/06/16 06:39:05;;;;;;;6.72;3.72;;;16.60;99.90;;;;;;5075834;28;20181;-66
2022/06/16 06:41:31;;;;;;;6.85;3.83;;;16.60;99.90;;;;;;5076231;28;20177;-66
2022/06/16 06:43:59;;;;;;;5.75;3.30;;;16.70;99.90;;;;;;5074684;28;20197;-66
2022/06/16 06:46:25;;;;;;;7.50;3.67;;;16.80;99.90;;;;;;5076756;28;20165;-67
2022/06/16 06:48:51;;;;;;;5.38;3.78;;;16.80;99.90;;;;;;5075543;28;20202;-67
2022/06/16 06:51:16;;;;;;;8.27;3.97;;;16.80;99.90;;;;;;5075264;28;20181;-67
2022/06/16 06:53:42;;;;;;;8.70;3.40;;;16.70;99.90;;;;;;5072965;28;20197;-67
2022/06/16 06:56:10;;;;;;;6.25;3.72;;;16.80;99.90;;;;;;5075341;28;20185;-67
2022/06/16 06:58:36;;;;;;;6.90;4.15;;;16.70;99.90;;;;;;5074167;28;20260;-67
2022/06/16 07:01:01;;;;;;;5.35;3.38;;;16.80;99.90;;;;;;5074424;28;20261;-67
2022/06/16 07:03:29;;;;;;;4.78;3.13;;;16.90;99.90;;;;;;5075285;28;20213;-67
2022/06/16 07:05:56;;;;;;;4.93;3.47;;;16.90;99.90;;;;;;5075061;28;20247;-67
2022/06/16 07:08:22;;;;;;;4.30;3.70;;;17.00;99.90;;;;;;5075130;28;20276;-69
2022/06/16 07:10:49;;;;;;;8.07;3.65;;;16.90;99.90;;;;;;5075136;28;20170;-67
2022/06/16 07:13:15;;;;;;;5.30;4.07;;;17.00;99.90;;;;;;5074103;28;20197;-68
2022/06/16 07:15:41;;;;;;;5.40;3.85;;;17.00;99.90;;;;;;5076761;28;20197;-67
2022/06/16 07:18:07;;;;;;;5.32;3.30;;;17.00;99.90;;;;;;5077595;28;20173;-68
2022/06/16 07:20:33;;;;;;;4.50;3.53;;;17.00;99.90;;;;;;5078577;28;20177;-68
2022/06/16 07:22:59;;;;;;;5.75;3.70;;;17.10;99.90;;;;;;5078393;28;20209;-67
2022/06/16 07:25:25;;;;;;;8.65;3.75;;;17.20;99.90;;;;;;5078818;28;20173;-67
2022/06/16 07:27:53;;;;;;;8.57;2.97;;;17.30;99.90;;;;;;5075375;28;20230;-68
2022/06/16 07:30:20;;;;;;;8.05;3.75;;;17.50;99.90;;;;;;5075697;28;20176;-67
2022/06/16 07:32:46;;;;;;;4.30;3.28;;;17.50;99.90;;;;;;5074896;28;20189;-68
2022/06/16 07:35:22;;;;;;;5.10;3.05;;;17.50;99.90;;;;;;5074815;28;20169;-68
2022/06/16 07:37:49;;;;;;;6.82;3.28;;;17.60;99.90;;;;;;5074605;28;20321;-67
2022/06/16 07:40:17;;;;;;;3.67;2.97;;;17.70;99.90;;;;;;5074841;28;20154;-67
2022/06/16 07:42:44;;;;;;;3.97;2.97;;;17.80;99.90;;;;;;5074691;28;20538;-68
2022/06/16 07:45:11;;;;;;;6.25;3.80;;;17.90;99.90;;;;;;5074500;28;20184;-67
2022/06/16 07:47:37;;;;;;;6.97;3.60;;;17.90;99.90;;;;;;5074752;28;20174;-68
2022/06/16 07:50:08;;;;;;;4.38;3.45;;;18.00;99.90;;;;;;5074548;28;20201;-67
2022/06/16 07:52:37;;;;;;;7.60;3.15;;;17.90;99.90;;;;;;5072911;28;20172;-67
2022/06/16 07:55:04;;;;;;;6.00;3.28;;;17.90;99.90;;;;;;5074312;28;20170;-67
2022/06/16 07:57:34;;;;;;;7.40;3.60;;;17.90;99.90;;;;;;5074292;28;20182;-67
2022/06/16 08:00:00;;;;;;;7.70;3.70;;;17.90;99.90;;;;;;5074217;28;20224;-68
2022/06/16 08:02:27;;;;;;;3.00;2.65;;;18.00;99.90;;;;;;5072787;28;20177;-66
2022/06/16 08:04:53;;;;;;;5.32;3.30;;;18.00;99.90;;;;;;5073678;28;20177;-66
2022/06/16 08:07:19;;;;;;;9.10;3.85;;;18.10;99.90;;;;;;5073713;28;20170;-66
2022/06/16 08:09:46;;;;;;;5.85;3.20;;;18.20;99.90;;;;;;5073781;28;20202;-66
2022/06/16 08:12:13;;;;;;;7.60;3.67;;;18.20;99.90;;;;;;5074173;28;20169;-66
2022/06/16 08:14:42;;;;;;;4.47;2.95;;;18.30;99.90;;;;;;5072351;28;20220;-66
2022/06/16 08:17:24;;;;;;;7.75;3.58;;;18.40;99.90;;;;;;5073803;28;20264;-65
2022/06/16 08:19:51;;;;;;;6.65;3.30;;;18.30;99.90;;;;;;5073804;28;20626;-66
2022/06/16 08:22:17;;;;;;;5.50;2.83;;;18.30;99.90;;;;;;5072278;28;20177;-66
2022/06/16 08:24:42;;;;;;;5.75;2.80;;;18.40;99.90;;;;;;5073735;28;20222;-66
2022/06/16 08:27:09;;;;;;;8.07;2.85;;;18.50;99.90;;;;;;5073648;28;20186;-65
2022/06/16 08:29:37;;;;;;;7.38;3.00;;;18.60;99.90;;;;;;5074116;28;20193;-65
2022/06/16 08:32:03;;;;;;;2.90;2.58;;;18.60;99.90;;;;;;5073830;28;20173;-66
2022/06/16 08:34:29;;;;;;;4.05;2.97;;;18.60;99.90;;;;;;5073423;28;20189;-66
2022/06/16 08:36:55;;;;;;;7.50;2.85;;;18.70;99.90;;;;;;5073430;28;20177;-66
2022/06/16 08:39:21;;;;;;;5.80;2.70;;;18.80;99.90;;;;;;5073488;28;20257;-66
2022/06/16 08:42:08;;;;;;;3.58;2.30;;;18.90;99.90;;;;;;5073738;28;20154;-66
2022/06/16 08:44:46;;;;;;;3.42;2.60;;;19.10;99.90;;;;;;5073475;28;20597;-66
2022/06/16 08:47:44;;;;;;;3.13;2.30;;;19.20;99.90;;;;;;5072115;28;20178;-69
2022/06/16 08:50:34;;;;;;;3.38;2.67;;;19.30;99.90;;;;;;5049851;28;20243;-65
2022/06/16 08:53:18;;;;;;;6.32;3.13;;;19.40;99.90;;;;;;5073143;28;20196;-65
2022/06/16 08:55:59;;;;;;;2.45;2.15;;;19.30;99.90;;;;;;5073444;28;20237;-65
2022/06/16 08:58:48;;;;;;;3.75;2.60;;;19.30;99.90;;;;;;5073559;28;20653;-66
2022/06/16 09:01:29;;;;;;;5.88;2.47;;;19.40;99.90;;;;;;5072200;28;20219;-67
2022/06/16 09:04:04;;;;;;;3.75;2.30;;;19.50;99.90;;;;;;5072364;28;20201;-66
2022/06/16 09:06:39;;;;;;;3.42;2.20;;;19.60;99.90;;;;;;5073927;28;20529;-66
2022/06/16 09:12:34;;;;;;;3.42;2.20;;;19.90;99.90;;;;;;5074098;28;20680;-66
2022/06/16 09:15:13;;;;;;;4.40;2.40;;;20.00;99.90;;;;;;5073252;28;20200;-66
2022/06/16 09:17:44;;;;;;;4.65;2.05;;;20.10;99.90;;;;;;5074322;28;20169;-66
2022/06/16 09:20:50;;;;;;;3.80;2.13;;;20.30;99.90;;;;;;5077941;28;20161;-66
2022/06/16 09:23:41;;;;;;;4.05;2.10;;;20.60;99.90;;;;;;5077162;28;20238;-66
2022/06/16 09:26:48;;;;;;;2.85;1.90;;;20.60;99.90;;;;;;5077965;28;20177;-67
2022/06/16 09:29:31;;;;;;;3.33;2.03;;;20.80;99.90;;;;;;5055352;28;20209;-67
2022/06/16 09:32:10;;;;;;;4.30;1.95;;;21.00;99.90;;;;;;5076005;28;20207;-67
2022/06/16 09:34:48;;;;;;;3.05;1.92;;;21.20;99.90;;;;;;5075928;28;20193;-67
2022/06/16 09:37:31;;;;;;;5.25;1.98;;;21.30;99.90;;;;;;5077171;28;20203;-67
2022/06/16 09:40:11;;;;;;;3.33;1.85;;;21.50;99.90;;;;;;5077086;28;20158;-67
2022/06/16 09:43:03;;;;;;;2.85;1.65;;;21.60;99.90;;;;;;5077147;28;20616;-65
2022/06/16 09:45:41;;;;;;;4.57;1.90;;;21.50;99.90;;;;;;5066893;28;20669;-68
2022/06/16 09:48:20;;;;;;;5.22;1.80;;;21.70;99.90;;;;;;5077498;28;20182;-66
2022/06/16 09:50:57;;;;;;;2.10;1.60;;;21.70;99.90;;;;;;5077080;28;20158;-66
2022/06/16 09:53:50;;;;;;;3.20;1.70;;;21.70;99.90;;;;;;5076695;28;20192;-70
2022/06/16 09:56:49;;;;;;;2.42;1.80;;;21.90;99.90;;;;;;5076794;28;20181;-77
2022/06/16 09:59:25;;;;;;;2.42;1.52;;;21.80;99.90;;;;;;5075403;28;20722;-65
2022/06/16 10:02:26;;;;;;;1.83;1.40;;;21.80;99.90;;;;;;5075344;28;20184;-64
2022/06/16 10:04:53;;;;;;;1.73;1.42;;;21.80;99.90;;;;;;5075327;28;20654;-64
2022/06/16 10:07:23;;;;;;;3.60;1.48;;;21.90;99.90;;;;;;5076528;28;20193;-65
2022/06/16 10:10:05;;;;;;;2.22;1.35;;;22.00;99.90;;;;;;5075059;28;20214;-64
2022/06/16 10:12:49;;;;;;;2.67;1.48;;;22.20;99.90;;;;;;5076745;28;20237;-65
2022/06/16 10:15:24;;;;;;;1.63;1.35;;;22.40;99.90;;;;;;5076239;28;20192;-65
2022/06/16 10:17:51;;;;;;;2.95;1.63;;;22.50;99.90;;;;;;5076660;28;20223;-65
2022/06/16 10:20:19;;;;;;;2.45;1.50;;;22.50;99.90;;;;;;5076341;28;20612;-65
2022/06/16 10:22:55;;;;;;;2.40;1.50;;;22.40;99.90;;;;;;5076756;28;20205;-65
2022/06/16 10:25:30;;;;;;;4.38;1.45;;;22.20;99.90;;;;;;5074948;28;20170;-64
2022/06/16 10:28:00;;;;;;;6.45;1.85;;;22.50;99.90;;;;;;5076060;28;20260;-65
2022/06/16 10:30:36;;;;;;;1.10;1.05;;;22.60;99.90;;;;;;5076179;28;20257;-65
2022/06/16 10:33:21;;;;;;;1.38;1.20;;;22.80;99.90;;;;;;5076050;28;20223;-65
2022/06/16 10:35:57;;;;;;;1.90;1.40;;;22.80;99.90;;;;;;5076287;28;20154;-65
2022/06/16 10:38:36;;;;;;;1.13;1.02;;;23.00;99.90;;;;;;5075623;28;20173;-65
2022/06/16 10:41:06;;;;;;;1.15;1.10;;;22.90;99.90;;;;;;5075859;28;20184;-65
2022/06/16 10:43:39;;;;;;;1.80;1.25;;;23.10;99.90;;;;;;5075780;28;20204;-65
2022/06/16 10:46:17;;;;;;;1.10;1.10;;;23.20;99.90;;;;;;5076085;28;20167;-65
2022/06/16 10:48:53;;;;;;;2.03;1.17;;;23.30;99.90;;;;;;5075677;28;20601;-65
2022/06/16 10:51:29;;;;;;;3.80;1.70;;;23.40;99.90;;;;;;5075768;28;20529;-65
2022/06/16 10:54:29;;;;;;;2.47;1.20;;;23.50;99.90;;;;;;5075595;28;20201;-65
2022/06/16 10:57:16;;;;;;;1.48;1.10;;;23.50;99.90;;;;;;5075536;28;20547;-65
2022/06/16 10:59:48;;;;;;;1.33;1.23;;;23.50;99.90;;;;;;5074221;28;20174;-68
2022/06/16 11:02:17;;;;;;;2.03;1.05;;;23.60;99.90;;;;;;5075873;28;20165;-66
2022/06/16 11:04:43;;;;;;;2.45;1.52;;;23.70;99.90;;;;;;5075368;28;20189;-65
2022/06/16 11:07:18;;;;;;;0.98;0.98;;;23.60;99.90;;;;;;5076316;28;20158;-66
2022/06/16 11:09:45;;;;;;;1.30;1.20;;;23.60;99.90;;;;;;5074028;28;20197;-68
2022/06/16 11:12:21;;;;;;;1.42;1.10;;;23.60;99.90;;;;;;5075590;28;20534;-69
2022/06/16 11:15:01;;;;;;;1.00;1.00;;;23.80;99.90;;;;;;5075081;28;20266;-69
2022/06/16 11:17:35;;;;;;;2.92;1.20;;;24.00;99.90;;;;;;5075521;28;20205;-69
2022/06/16 11:20:09;;;;;;;2.58;1.20;;;24.20;99.90;;;;;;5075118;28;20224;-68
2022/06/16 11:22:40;;;;;;;1.70;1.20;;;24.30;99.90;;;;;;5073788;28;20269;-68
2022/06/16 11:25:32;;;;;;;1.42;1.33;;;24.50;99.90;;;;;;5075504;28;20235;-68
2022/06/16 11:28:09;;;;;;;2.78;1.75;;;24.70;99.90;;;;;;5074947;28;20247;-68
2022/06/16 11:30:43;;;;;;;3.03;1.17;;;24.60;99.90;;;;;;5073562;28;20169;-68
2022/06/16 11:36:41;;;;;;;1.33;1.23;;;25.20;99.90;;;;;;5075374;28;20167;-68
2022/06/16 11:39:22;;;;;;;2.42;1.40;;;25.40;99.90;;;;;;5073111;28;20177;-68
2022/06/16 11:41:52;;;;;;;2.55;1.20;;;25.60;99.90;;;;;;5074696;28;20178;-68
2022/06/16 11:44:39;;;;;;;1.52;1.20;;;25.70;99.90;;;;;;5074957;28;20650;-68
2022/06/16 11:47:30;;;;;;;2.15;1.48;;;25.90;99.90;;;;;;5074737;28;20169;-68
2022/06/16 11:50:05;;;;;;;1.45;1.30;;;26.00;99.90;;;;;;5074816;28;20190;-68
2022/06/16 11:52:57;;;;;;;1.65;1.55;;;26.00;99.90;;;;;;5074412;28;20240;-68
2022/06/16 11:55:23;;;;;;;4.20;1.40;;;25.80;99.90;;;;;;5073442;28;20534;-69
2022/06/16 11:57:57;;;;;;;3.42;1.40;;;26.00;99.90;;;;;;5074652;28;20189;-69
2022/06/16 12:00:36;;;;;;;3.58;1.50;;;26.00;99.90;;;;;;5073637;28;20203;-68
2022/06/16 12:03:27;;;;;;;2.70;1.70;;;25.70;99.90;;;;;;5074813;28;20185;-69
2022/06/16 12:06:23;;;;;;;2.40;1.67;;;25.50;99.90;;;;;;5073101;28;20173;-68
2022/06/16 12:09:07;;;;;;;1.50;1.40;;;25.50;99.90;;;;;;5073309;28;20243;-68
2022/06/16 12:12:11;;;;;;;1.77;1.40;;;25.90;99.90;;;;;;5074006;28;20161;-71
2022/06/16 12:15:15;;;;;;;2.90;1.45;;;26.30;99.90;;;;;;5073498;28;20221;-71
2022/06/16 12:18:36;;;;;;;1.95;1.40;;;26.70;99.90;;;;;;5067212;28;20548;-72
2022/06/16 12:21:23;;;;;;;3.53;1.90;;;26.50;99.90;;;;;;5051981;28;20182;-68
2022/06/16 12:24:02;;;;;;;3.65;1.88;;;26.80;99.90;;;;;;5035056;28;20198;-68
2022/06/16 12:26:39;;;;;;;2.47;1.70;;;27.10;99.90;;;;;;5060227;28;20250;-68
2022/06/16 12:29:27;;;;;;;2.92;1.70;;;27.10;99.90;;;;;;5074117;28;20197;-70
2022/06/16 12:32:27;;;;;;;2.88;1.60;;;27.20;99.90;;;;;;5073910;28;20197;-72
2022/06/16 12:35:17;;;;;;;3.40;1.60;;;27.30;99.90;;;;;;5069554;28;20185;-70
2022/06/16 12:37:55;;;;;;;3.28;1.48;;;27.60;99.90;;;;;;5074181;28;20150;-69
2022/06/16 12:40:38;;;;;;;2.05;1.63;;;27.70;99.90;;;;;;5074879;28;20188;-69
2022/06/16 12:43:34;;;;;;;3.08;1.50;;;27.90;99.90;;;;;;5074190;28;20728;-68
2022/06/16 12:46:05;;;;;;;3.08;1.67;;;28.20;99.90;;;;;;5075864;28;20619;-68
2022/06/16 12:48:52;;;;;;;2.22;1.77;;;28.30;99.90;;;;;;5074789;28;20720;-67
2022/06/16 12:51:21;;;;;;;3.90;2.00;;;28.30;99.90;;;;;;5073874;28;20150;-69
2022/06/16 12:53:55;;;;;;;5.18;1.60;;;27.90;99.90;;;;;;5074315;28;20240;-68
2022/06/16 12:57:00;;;;;;;3.53;2.05;;;27.60;99.90;;;;;;5074715;28;20193;-67
2022/06/16 12:59:41;;;;;;;1.75;1.40;;;27.00;99.90;;;;;;5070785;28;20665;-67
2022/06/16 13:02:13;;;;;;;3.40;1.70;;;27.10;99.90;;;;;;5073865;28;20211;-68
2022/06/16 13:04:41;;;;;;;3.25;1.58;;;27.20;99.90;;;;;;5073535;28;20201;-68
2022/06/16 13:07:14;;;;;;;3.00;1.90;;;27.70;99.90;;;;;;5073596;28;20525;-68
2022/06/16 13:09:42;;;;;;;3.45;1.67;;;28.00;99.90;;;;;;5073937;28;20190;-73
2022/06/16 13:12:14;;;;;;;2.28;1.77;;;28.30;99.90;;;;;;5074753;28;20174;-71
2022/06/16 13:14:57;;;;;;;3.35;1.67;;;28.00;99.90;;;;;;5073313;28;20215;-71
2022/06/16 13:17:32;;;;;;;2.40;1.67;;;28.40;99.90;;;;;;5073459;28;20154;-69
2022/06/16 13:20:07;;;;;;;2.05;1.50;;;28.90;99.90;;;;;;5073243;28;20626;-69
2022/06/16 13:22:44;;;;;;;3.95;1.80;;;29.10;99.90;;;;;;5073043;28;20248;-69
2022/06/16 13:25:35;;;;;;;3.65;1.60;;;29.20;99.90;;;;;;5073109;28;20170;-68
2022/06/16 13:28:05;;;;;;;1.73;1.55;;;29.30;99.90;;;;;;5071973;28;20220;-69
2022/06/16 13:30:30;;;;;;;2.50;1.70;;;29.40;99.90;;;;;;5071763;28;20265;-69
2022/06/16 13:33:08;;;;;;;2.78;1.80;;;29.60;99.90;;;;;;5073312;28;20277;-69
2022/06/16 13:35:40;;;;;;;2.45;1.77;;;29.90;99.90;;;;;;5073110;28;20227;-68
2022/06/16 13:38:06;;;;;;;4.10;1.80;;;30.00;99.90;;;;;;5071600;28;20635;-72
2022/06/16 13:40:43;;;;;;;4.00;1.77;;;29.80;99.90;;;;;;5073072;28;20177;-69
2022/06/16 13:43:15;;;;;;;3.78;1.95;;;30.00;99.90;;;;;;5072990;28;20197;-68
2022/06/16 13:45:52;;;;;;;4.20;1.67;;;29.90;99.90;;;;;;5073043;28;20531;-68
2022/06/16 13:48:29;;;;;;;1.40;1.30;;;30.00;99.90;;;;;;5073209;28;20557;-68